createdAt,value
2022-07-27T00:00:00.139Z,10.10
2022-07-27T00:10:00.177Z,6.90
2022-07-27T00:20:00.159Z,5.90
2022-07-27T00:30:00.104Z,4.20
2022-07-27T00:40:00.116Z,4.50
2022-07-27T00:50:00.121Z,5.30
2022-07-27T01:00:00.159Z,7.20
2022-07-27T01:10:00.223Z,5.30
2022-07-27T01:20:00.156Z,5.00
2022-07-27T01:30:00.097Z,4.00
2022-07-27T01:40:00.113Z,3.70
2022-07-27T01:50:01.247Z,5.20
2022-07-27T02:00:00.099Z,4.90
2022-07-27T02:10:00.113Z,4.50
2022-07-27T02:20:00.088Z,5.90
2022-07-27T02:30:00.074Z,5.20
2022-07-27T02:40:00.327Z,7.30
2022-07-27T02:50:00.136Z,9.80
2022-07-27T03:00:01.243Z,7.00
2022-07-27T03:10:00.105Z,4.90
2022-07-27T03:20:00.148Z,4.70
2022-07-27T03:30:00.098Z,3.90
2022-07-27T03:40:00.103Z,5.10
2022-07-27T03:50:00.140Z,5.90
2022-07-27T04:00:00.157Z,5.40
2022-07-27T04:10:00.108Z,7.00
2022-07-27T04:20:00.148Z,5.70
2022-07-27T04:30:00.108Z,7.30
2022-07-27T04:40:00.093Z,5.60
2022-07-27T04:50:00.267Z,5.00
2022-07-27T05:00:00.090Z,7.40
2022-07-27T05:10:00.131Z,6.60
2022-07-27T05:20:00.145Z,4.50
2022-07-27T05:30:00.118Z,5.20
2022-07-27T05:40:00.117Z,9.00
2022-07-27T05:50:01.484Z,8.10
2022-07-27T06:00:00.109Z,8.20
2022-07-27T06:10:00.137Z,7.00
2022-07-27T06:20:00.115Z,5.00
2022-07-27T06:30:00.132Z,5.00
2022-07-27T06:40:00.138Z,6.10
2022-07-27T06:50:01.592Z,8.30
2022-07-27T07:00:01.430Z,6.70
2022-07-27T07:10:00.120Z,9.60
2022-07-27T07:20:00.123Z,8.00
2022-07-27T07:30:00.102Z,7.50
2022-07-27T07:40:12.879Z,11.50
2022-07-27T07:50:00.123Z,3.70
2022-07-27T08:00:00.117Z,8.90
2022-07-27T08:10:00.147Z,4.40
2022-07-27T08:20:00.114Z,2.60
2022-07-27T08:30:00.086Z,4.70
2022-07-27T08:50:00.228Z,4.10
2022-07-27T09:00:00.211Z,4.50
2022-07-27T09:10:00.224Z,2.80
2022-07-27T09:20:00.167Z,5.00
2022-07-27T09:30:00.153Z,3.50
2022-07-27T09:40:00.162Z,5.80
2022-07-27T09:50:00.139Z,2.90
2022-07-27T10:00:00.105Z,3.70
2022-07-27T10:10:00.135Z,4.80
2022-07-27T10:20:00.138Z,4.20
2022-07-27T10:30:00.117Z,5.10
2022-07-27T10:40:03.857Z,6.20
2022-07-27T10:50:00.133Z,10.50
2022-07-27T11:00:09.245Z,8.30
2022-07-27T11:10:03.874Z,9.10
2022-07-27T11:20:00.145Z,22.40
2022-07-27T11:30:00.144Z,29.70
2022-07-27T11:40:02.962Z,139.20
2022-07-27T11:50:00.203Z,223.80
2022-07-27T12:00:00.135Z,145.80
2022-07-27T12:10:00.205Z,33.80
2022-07-27T12:20:00.161Z,23.00
2022-07-27T12:30:00.179Z,23.80
2022-07-27T12:40:00.144Z,33.40
2022-07-27T12:50:00.114Z,73.90
2022-07-27T13:00:00.138Z,52.10
2022-07-27T13:10:02.437Z,35.90
2022-07-27T13:20:00.126Z,30.10
2022-07-27T13:30:00.171Z,21.50
2022-07-27T13:40:00.177Z,128.60
2022-07-27T13:50:00.123Z,195.60
2022-07-27T14:00:00.150Z,169.80
2022-07-27T14:10:00.105Z,205.20
2022-07-27T14:20:00.118Z,100.50
2022-07-27T14:30:00.235Z,123.60
2022-07-27T14:40:00.189Z,133.90
2022-07-27T14:50:00.262Z,86.80
2022-07-27T15:00:00.164Z,39.50
2022-07-27T15:10:00.113Z,60.10
2022-07-27T15:20:00.109Z,53.80
2022-07-27T15:30:00.135Z,53.70
2022-07-27T15:40:00.117Z,96.90
2022-07-27T15:50:00.104Z,100.00
2022-07-27T16:00:00.155Z,63.80
2022-07-27T16:10:00.130Z,36.30
2022-07-27T16:20:01.424Z,36.60
2022-07-27T16:30:00.141Z,25.70
2022-07-27T16:40:00.126Z,18.10
2022-07-27T16:50:00.139Z,24.60
2022-07-27T17:00:00.459Z,16.00
2022-07-27T17:10:00.214Z,12.00
2022-07-27T17:20:00.115Z,9.70
2022-07-27T17:30:00.126Z,5.60
2022-07-27T17:40:00.115Z,8.40
2022-07-27T17:50:00.145Z,5.30
2022-07-27T18:00:01.979Z,4.40
2022-07-27T18:10:00.151Z,4.10
2022-07-27T18:20:00.127Z,3.80
2022-07-27T18:30:00.147Z,5.00
2022-07-27T18:40:00.152Z,5.50
2022-07-27T18:50:00.094Z,4.70
2022-07-27T19:00:00.345Z,7.30
2022-07-27T19:10:00.124Z,7.40
2022-07-27T19:20:00.142Z,3.20
2022-07-27T19:30:00.147Z,5.30
2022-07-27T19:40:09.756Z,5.10
2022-07-27T19:50:00.089Z,6.70
2022-07-27T20:00:00.145Z,8.70
2022-07-27T20:10:00.135Z,7.50
2022-07-27T20:20:00.116Z,7.50
2022-07-27T20:30:00.136Z,3.00
2022-07-27T20:40:00.090Z,5.00
2022-07-27T20:50:00.117Z,7.80
2022-07-27T21:00:00.158Z,10.30
2022-07-27T21:10:00.171Z,7.30
2022-07-27T21:20:00.134Z,114.20
2022-07-27T21:30:00.172Z,413.00
2022-07-27T21:40:00.118Z,208.30
2022-07-27T21:50:01.235Z,10.80
2022-07-27T22:00:01.165Z,105.80
2022-07-27T22:10:00.122Z,6.40
2022-07-27T22:20:00.143Z,39.50
2022-07-27T22:30:00.119Z,4.50
2022-07-27T22:40:00.142Z,4.10
2022-07-27T22:50:00.125Z,5.90
2022-07-27T23:00:00.136Z,7.00
2022-07-27T23:10:00.105Z,10.80
2022-07-27T23:20:00.122Z,6.30
2022-07-27T23:30:00.143Z,4.90
2022-07-27T23:40:00.109Z,7.70
2022-07-27T23:50:00.146Z,7.10
